Rancho Santa Margarita, California
Current Conditions -  °F | °C
As of 12:53 PM on Friday 24 Oct 2014 (Local Time) from KSNA Reporting Station
Clear Clear  
Wind Chill: 86°   Ceiling: Unl
Heat Index: 86°   Visibility: 10mi
Dew Point: 44°   Wind: 7mph
Humidity: 23%   Direction: 220°SW
Pressure: 29.95"   Gusts: NA
Location:  33.63°N, 117.6°W
Report Text: KSNA 241953Z 22006KT 10SM CLR 30/07 A2995 RMK AO2 SLP140 T03000067
Loading
Personal Weather Stations






























Interactive Weather Map
Tropical Storm Tracking
New forecast layout! Learn more

10-Day Weather Forecast

Advertisements
Track Severe Weather on mobile